Time;durP1;ratioP1;P1;durP2;ratioP2;P2;SDS_P1;SDS_P2;PMS_P1;PMS_P2;Temp;Humidity;BMP_temperature;BMP_pressure;BME280_temperature;BME280_humidity;BME280_pressure;Samples;Min_cycle;Max_cycle;Signal;HPM_P1;HPM_P2
2023/01/15 00:01:45;;;;;;;;;;;9.00;99.90;;;;;;5087917;28;20341;-74
2023/01/15 00:04:14;;;;;;;;;;;9.00;99.90;;;;;;5108276;27;20483;-72
2023/01/15 00:06:44;;;;;;;;;;;9.00;99.90;;;;;;5101635;28;20488;-73
2023/01/15 00:09:14;;;;;;;;;;;9.10;99.90;;;;;;5106317;28;20387;-73
2023/01/15 00:11:43;;;;;;;;;;;9.00;99.90;;;;;;5087009;28;19932;-71
2023/01/15 00:14:13;;;;;;;;;;;9.10;99.90;;;;;;5086371;28;19927;-72
2023/01/15 00:16:46;;;;;;;;;;;9.10;99.90;;;;;;5101616;28;19924;-72
2023/01/15 00:19:15;;;;;;;;;;;9.10;99.90;;;;;;5087536;28;20015;-73
2023/01/15 00:21:44;;;;;;;;;;;9.20;99.90;;;;;;5103181;28;19924;-71
2023/01/15 00:29:58;;;;;;;;;;;9.30;99.90;;;;;;5097016;28;19928;-74
2023/01/15 00:32:28;;;;;;;;;;;9.30;99.90;;;;;;5087358;28;20006;-72
2023/01/15 00:34:59;;;;;;;;;;;9.40;99.90;;;;;;5090767;28;19958;-72
2023/01/15 00:37:29;;;;;;;;;;;9.40;99.90;;;;;;5089553;28;19923;-74
2023/01/15 00:40:08;;;;;;;;;;;9.50;99.90;;;;;;5105799;27;19924;-72
2023/01/15 00:42:38;;;;;;;;;;;9.60;99.90;;;;;;5103852;28;19923;-73
2023/01/15 00:45:10;;;;;;;;;;;9.50;99.90;;;;;;5090157;28;19938;-73
2023/01/15 00:47:40;;;;;;;;;;;9.50;99.90;;;;;;5098085;28;20556;-72
2023/01/15 00:50:10;;;;;;;;;;;9.60;99.90;;;;;;5099279;28;19934;-73
2023/01/15 00:52:39;;;;;;;;;;;9.60;99.90;;;;;;5082133;28;20044;-70
2023/01/15 00:55:09;;;;;;;;;;;9.60;99.90;;;;;;5092541;28;20287;-73
2023/01/15 00:57:37;;;;;;;;;;;9.60;99.90;;;;;;5087827;28;19978;-73
2023/01/15 01:00:07;;;;;;;;;;;9.60;99.90;;;;;;5073682;28;19924;-73
2023/01/15 01:02:36;;;;;;;;;;;9.70;99.90;;;;;;5096776;28;19936;-73
2023/01/15 01:05:07;;;;;;;;;;;9.70;99.90;;;;;;5103250;28;19992;-71
2023/01/15 01:07:37;;;;;;;;;;;9.60;99.90;;;;;;5103643;28;19924;-73
2023/01/15 01:10:06;;;;;;;;;;;9.70;99.90;;;;;;5082529;28;19986;-73
2023/01/15 01:12:36;;;;;;;;;;;9.80;99.90;;;;;;5105185;28;19931;-73
2023/01/15 01:15:05;;;;;;;;;;;9.80;99.90;;;;;;5108295;28;20006;-73
2023/01/15 01:17:36;;;;;;;;;;;9.80;99.90;;;;;;5090128;28;19931;-73
2023/01/15 01:20:04;;;;;;;;;;;9.80;99.90;;;;;;5078224;28;19935;-73
2023/01/15 01:22:32;;;;;;;;;;;9.80;99.90;;;;;;5098078;28;19924;-73
2023/01/15 01:25:02;;;;;;;;;;;9.80;99.90;;;;;;5094895;28;19932;-73
2023/01/15 01:27:30;;;;;;;;;;;9.80;99.90;;;;;;5108484;28;19950;-73
2023/01/15 01:30:00;;;;;;;;;;;9.70;99.90;;;;;;5092671;28;19924;-73
2023/01/15 01:32:45;;;;;;;;;;;9.70;99.90;;;;;;5071363;28;20019;-73
2023/01/15 01:35:14;;;;;;;;;;;9.70;99.90;;;;;;5107815;27;19924;-73
2023/01/15 01:37:43;;;;;;;;;;;9.70;99.90;;;;;;5092335;28;20027;-72
2023/01/15 01:40:11;;;;;;;;;;;9.70;99.90;;;;;;5102391;28;19928;-73
2023/01/15 01:42:41;;;;;;;;;;;9.70;99.90;;;;;;5102191;28;20078;-72
2023/01/15 01:45:16;;;;;;;;;;;9.80;99.90;;;;;;5103821;28;19976;-72
2023/01/15 01:47:45;;;;;;;;;;;9.80;99.90;;;;;;5090665;28;20287;-73
2023/01/15 01:50:18;;;;;;;;;;;9.70;99.90;;;;;;5099076;28;19975;-73
2023/01/15 01:52:53;;;;;;;;;;;9.70;99.90;;;;;;5090864;28;19928;-72
2023/01/15 01:55:27;;;;;;;;;;;9.70;99.90;;;;;;5105826;28;19928;-73
2023/01/15 01:58:01;;;;;;;;;;;9.70;99.90;;;;;;5102544;28;20420;-73
2023/01/15 02:00:31;;;;;;;;;;;9.70;99.90;;;;;;5105597;28;19943;-72
2023/01/15 02:03:00;;;;;;;;;;;9.70;99.90;;;;;;5106494;28;19931;-72
2023/01/15 02:05:31;;;;;;;;;;;9.70;99.90;;;;;;5108651;28;19928;-71
2023/01/15 02:08:01;;;;;;;;;;;9.70;99.90;;;;;;5102680;27;20083;-71
2023/01/15 02:10:34;;;;;;;;;;;9.70;99.90;;;;;;5124788;27;20067;-71
2023/01/15 02:13:15;;;;;;;;;;;9.70;99.90;;;;;;5105212;28;20441;-73
2023/01/15 02:15:45;;;;;;;;;;;9.60;99.90;;;;;;5105567;27;19938;-73
2023/01/15 02:18:21;;;;;;;;;;;9.50;99.90;;;;;;5100429;28;20023;-73
2023/01/15 02:20:54;;;;;;;;;;;9.40;99.90;;;;;;5099884;28;19924;-74
2023/01/15 02:23:44;;;;;;;;;;;9.30;99.90;;;;;;5102153;28;19992;-74
2023/01/15 02:26:17;;;;;;;;;;;9.20;99.90;;;;;;5104853;28;20402;-74
2023/01/15 02:28:47;;;;;;;;;;;9.00;99.90;;;;;;5093607;28;19955;-73
2023/01/15 02:31:17;;;;;;;;;;;8.80;99.90;;;;;;5108942;28;19935;-74
2023/01/15 02:33:50;;;;;;;;;;;8.70;99.90;;;;;;5089261;28;19928;-74
2023/01/15 02:36:20;;;;;;;;;;;8.60;99.90;;;;;;5100532;28;19934;-74
2023/01/15 02:38:55;;;;;;;;;;;8.60;99.90;;;;;;5092083;28;19928;-74
2023/01/15 02:41:29;;;;;;;;;;;8.60;99.90;;;;;;5100695;28;19935;-74
2023/01/15 02:44:00;;;;;;;;;;;8.50;99.90;;;;;;5106135;27;19935;-73
2023/01/15 02:46:31;;;;;;;;;;;8.50;99.90;;;;;;5105099;28;20009;-73
2023/01/15 02:49:06;;;;;;;;;;;8.40;99.90;;;;;;5095997;28;19930;-74
2023/01/15 02:52:01;;;;;;;;;;;8.40;99.90;;;;;;5085379;28;19935;-74
2023/01/15 02:54:35;;;;;;;;;;;8.50;99.90;;;;;;5087705;28;19924;-74
2023/01/15 02:57:04;;;;;;;;;;;8.40;99.90;;;;;;5083434;28;20343;-74
2023/01/15 02:59:37;;;;;;;;;;;8.50;99.90;;;;;;5098030;28;20023;-73
2023/01/15 03:02:10;;;;;;;;;;;8.50;99.90;;;;;;5083086;28;20022;-72
2023/01/15 03:04:42;;;;;;;;;;;8.60;99.90;;;;;;5103210;28;20366;-73
2023/01/15 03:07:18;;;;;;;;;;;8.60;99.90;;;;;;5100480;28;19928;-73
2023/01/15 03:09:53;;;;;;;;;;;8.70;99.90;;;;;;5104039;28;19924;-72
2023/01/15 03:12:25;;;;;;;;;;;8.60;99.90;;;;;;5082382;28;20043;-73
2023/01/15 03:14:57;;;;;;;;;;;8.70;99.90;;;;;;5105658;28;19927;-73
2023/01/15 03:17:35;;;;;;;;;;;8.70;99.90;;;;;;5108159;28;20054;-73
2023/01/15 03:20:11;;;;;;;;;;;8.80;99.90;;;;;;5110349;28;19927;-73
2023/01/15 03:22:43;;;;;;;;;;;8.80;99.90;;;;;;5092991;28;19978;-72
2023/01/15 03:25:15;;;;;;;;;;;8.80;99.90;;;;;;5099755;28;19928;-73
2023/01/15 03:27:49;;;;;;;;;;;8.80;99.90;;;;;;5082738;28;19932;-73
2023/01/15 03:30:19;;;;;;;;;;;8.90;99.90;;;;;;5101142;28;19953;-73
2023/01/15 03:32:49;;;;;;;;;;;8.90;99.90;;;;;;5085059;28;20287;-72
2023/01/15 03:35:37;;;;;;;;;;;8.90;99.90;;;;;;5088356;28;19931;-72
2023/01/15 03:38:08;;;;;;;;;;;8.90;99.90;;;;;;5090237;28;19934;-72
2023/01/15 03:40:41;;;;;;;;;;;9.00;99.90;;;;;;5095250;28;19924;-72
2023/01/15 03:46:03;;;;;;;;;;;9.00;99.90;;;;;;5095078;28;19931;-71
2023/01/15 03:48:38;;;;;;;;;;;9.10;99.90;;;;;;5097738;28;20368;-72
2023/01/15 03:51:10;;;;;;;;;;;9.10;99.90;;;;;;5082455;28;19931;-72
2023/01/15 03:53:44;;;;;;;;;;;9.20;99.90;;;;;;5104567;28;20008;-72
2023/01/15 03:56:32;;;;;;;;;;;9.20;99.90;;;;;;5100658;28;19927;-72
2023/01/15 03:59:07;;;;;;;;;;;9.30;99.90;;;;;;5096032;28;19975;-72
2023/01/15 04:01:56;;;;;;;;;;;9.40;99.90;;;;;;5104992;28;20007;-71
2023/01/15 04:04:26;;;;;;;;;;;9.40;99.90;;;;;;5097458;28;19935;-72
2023/01/15 04:06:56;;;;;;;;;;;9.50;99.90;;;;;;5106472;28;19924;-72
2023/01/15 04:09:26;;;;;;;;;;;9.60;99.90;;;;;;5085318;28;20007;-72
2023/01/15 04:11:58;;;;;;;;;;;9.80;99.90;;;;;;5083477;28;19924;-71
2023/01/15 04:14:33;;;;;;;;;;;9.90;99.90;;;;;;5097862;28;19924;-72
2023/01/15 04:17:07;;;;;;;;;;;9.90;99.90;;;;;;5100225;28;19928;-71
2023/01/15 04:19:37;;;;;;;;;;;10.00;99.90;;;;;;5101395;28;20011;-72
2023/01/15 04:22:09;;;;;;;;;;;10.00;99.90;;;;;;5086872;28;20402;-72
2023/01/15 04:24:38;;;;;;;;;;;10.00;99.90;;;;;;5089420;28;19935;-72
2023/01/15 04:27:07;;;;;;;;;;;10.00;99.90;;;;;;5073293;28;19974;-72
2023/01/15 04:29:37;;;;;;;;;;;10.00;99.90;;;;;;5089677;28;20398;-72
2023/01/15 04:32:07;;;;;;;;;;;10.00;99.90;;;;;;5094194;28;19924;-72
2023/01/15 04:34:35;;;;;;;;;;;9.90;99.90;;;;;;5098046;28;19924;-73
2023/01/15 04:37:05;;;;;;;;;;;10.00;99.90;;;;;;5102144;28;19977;-72
2023/01/15 04:39:34;;;;;;;;;;;10.00;99.90;;;;;;5098859;28;19960;-72
2023/01/15 04:44:51;;;;;;;;;;;10.10;99.90;;;;;;5100062;28;19930;-72
2023/01/15 04:47:19;;;;;;;;;;;10.10;99.90;;;;;;5097609;28;19938;-72
2023/01/15 04:49:48;;;;;;;;;;;10.20;99.90;;;;;;5080706;28;19930;-71
2023/01/15 04:52:18;;;;;;;;;;;10.20;99.90;;;;;;5094065;28;19954;-72
2023/01/15 04:54:46;;;;;;;;;;;10.30;99.90;;;;;;5100957;28;19924;-72
2023/01/15 04:57:17;;;;;;;;;;;10.30;99.90;;;;;;5114570;27;19931;-72
2023/01/15 04:59:46;;;;;;;;;;;10.20;99.90;;;;;;5107983;28;19931;-72
2023/01/15 05:02:16;;;;;;;;;;;10.30;99.90;;;;;;5108045;28;19924;-71
2023/01/15 05:04:45;;;;;;;;;;;10.30;99.90;;;;;;5100825;28;19924;-71
2023/01/15 05:07:16;;;;;;;;;;;10.30;99.90;;;;;;5109516;28;19969;-72
2023/01/15 05:09:50;;;;;;;;;;;10.40;99.90;;;;;;5083660;28;20009;-71
2023/01/15 05:12:19;;;;;;;;;;;10.40;99.90;;;;;;5104560;28;20423;-72
2023/01/15 05:14:48;;;;;;;;;;;10.50;99.90;;;;;;5077633;28;20056;-72
2023/01/15 05:17:17;;;;;;;;;;;10.50;99.90;;;;;;5095336;28;20459;-72
2023/01/15 05:19:46;;;;;;;;;;;10.50;99.90;;;;;;5102536;28;19930;-72
2023/01/15 05:22:15;;;;;;;;;;;10.40;99.90;;;;;;5098829;28;19924;-72
2023/01/15 05:24:46;;;;;;;;;;;10.40;99.90;;;;;;5082716;28;20450;-72
2023/01/15 05:27:15;;;;;;;;;;;10.50;99.90;;;;;;5096984;28;19955;-72
2023/01/15 05:29:46;;;;;;;;;;;10.60;99.90;;;;;;5097540;28;19924;-72
2023/01/15 05:32:16;;;;;;;;;;;10.60;99.90;;;;;;5082080;28;19931;-71
2023/01/15 05:34:45;;;;;;;;;;;10.50;99.90;;;;;;5099708;28;19964;-72
2023/01/15 05:37:14;;;;;;;;;;;10.50;99.90;;;;;;5085801;28;20014;-72
2023/01/15 05:39:44;;;;;;;;;;;10.60;99.90;;;;;;5095507;28;19935;-72
2023/01/15 05:42:13;;;;;;;;;;;10.50;99.90;;;;;;5079071;28;19934;-71
2023/01/15 05:44:42;;;;;;;;;;;10.60;99.90;;;;;;5107224;28;19946;-71
2023/01/15 05:47:13;;;;;;;;;;;10.60;99.90;;;;;;5081582;28;20014;-72
2023/01/15 05:49:42;;;;;;;;;;;10.60;99.90;;;;;;5098334;28;19931;-72
2023/01/15 05:52:11;;;;;;;;;;;10.70;99.90;;;;;;5080787;28;19924;-71
2023/01/15 05:54:41;;;;;;;;;;;10.60;99.90;;;;;;5081245;28;19924;-72
2023/01/15 05:57:11;;;;;;;;;;;10.70;99.90;;;;;;5099401;28;19924;-71
2023/01/15 05:59:42;;;;;;;;;;;10.70;99.90;;;;;;5088025;28;20023;-71
2023/01/15 06:02:11;;;;;;;;;;;10.70;99.90;;;;;;5110600;28;20286;-71
2023/01/15 06:04:40;;;;;;;;;;;10.70;99.90;;;;;;5099726;28;19967;-71
2023/01/15 06:07:09;;;;;;;;;;;10.70;99.90;;;;;;5093973;28;20014;-72
2023/01/15 06:09:38;;;;;;;;;;;10.70;99.90;;;;;;5084832;28;19931;-72
2023/01/15 06:12:08;;;;;;;;;;;10.70;99.90;;;;;;5102439;28;19923;-71
2023/01/15 06:14:37;;;;;;;;;;;10.70;99.90;;;;;;5087404;28;20007;-72
2023/01/15 06:17:06;;;;;;;;;;;10.70;99.90;;;;;;5084876;28;20018;-71
2023/01/15 06:19:35;;;;;;;;;;;10.60;99.90;;;;;;5103439;28;19932;-72
2023/01/15 06:22:04;;;;;;;;;;;10.60;99.90;;;;;;5080507;28;20011;-72
2023/01/15 06:24:33;;;;;;;;;;;10.50;99.90;;;;;;5104375;28;19930;-72
2023/01/15 06:27:01;;;;;;;;;;;10.60;99.90;;;;;;5110117;28;20267;-71
2023/01/15 06:29:33;;;;;;;;;;;10.50;99.90;;;;;;5105926;27;19993;-72
2023/01/15 06:32:01;;;;;;;;;;;10.50;99.90;;;;;;5110371;27;20294;-72
2023/01/15 06:34:35;;;;;;;;;;;10.50;99.90;;;;;;5105112;27;19924;-71
2023/01/15 06:37:06;;;;;;;;;;;10.50;99.90;;;;;;5103034;28;19931;-71
2023/01/15 06:39:37;;;;;;;;;;;10.40;99.90;;;;;;5099129;28;19959;-72
2023/01/15 06:47:45;;;;;;;;;;;10.40;99.90;;;;;;5099931;28;19923;-72
2023/01/15 06:50:15;;;;;;;;;;;10.30;99.90;;;;;;5102567;28;19932;-72
2023/01/15 06:52:53;;;;;;;;;;;10.20;99.90;;;;;;5102017;28;20007;-72
2023/01/15 06:55:22;;;;;;;;;;;10.20;99.90;;;;;;5101942;28;19946;-72
2023/01/15 06:57:50;;;;;;;;;;;10.10;99.90;;;;;;5084507;28;20287;-72
2023/01/15 07:00:21;;;;;;;;;;;10.00;99.90;;;;;;5099376;28;19924;-72
2023/01/15 07:02:56;;;;;;;;;;;9.90;99.90;;;;;;5103201;28;19949;-71
2023/01/15 07:05:27;;;;;;;;;;;10.00;99.90;;;;;;5103873;28;19930;-72
2023/01/15 07:08:03;;;;;;;;;;;9.90;99.90;;;;;;5099974;28;19969;-72
2023/01/15 07:10:35;;;;;;;;;;;9.90;99.90;;;;;;5097559;28;20306;-72
2023/01/15 07:13:06;;;;;;;;;;;9.90;99.90;;;;;;5087290;28;20348;-71
2023/01/15 07:15:36;;;;;;;;;;;9.90;99.90;;;;;;5086056;28;20008;-71
2023/01/15 07:18:07;;;;;;;;;;;9.90;99.90;;;;;;5081222;28;19928;-71
2023/01/15 07:20:36;;;;;;;;;;;9.80;99.90;;;;;;5100134;28;19925;-72
2023/01/15 07:23:05;;;;;;;;;;;9.80;99.90;;;;;;5083932;28;20010;-72
2023/01/15 07:25:34;;;;;;;;;;;9.80;99.90;;;;;;5101638;28;20019;-72
2023/01/15 07:28:04;;;;;;;;;;;9.70;99.90;;;;;;5101805;28;19928;-72
2023/01/15 07:30:33;;;;;;;;;;;9.60;99.90;;;;;;5101992;28;19924;-71
2023/01/15 07:33:02;;;;;;;;;;;9.60;99.90;;;;;;5090001;28;20316;-72
2023/01/15 07:35:31;;;;;;;;;;;9.60;99.90;;;;;;5082839;28;19928;-72
2023/01/15 07:38:00;;;;;;;;;;;9.60;99.90;;;;;;5088187;28;19928;-72
2023/01/15 07:40:29;;;;;;;;;;;9.50;99.90;;;;;;5098128;28;19997;-72
2023/01/15 07:51:21;;;;;;;;;;;9.50;99.90;;;;;;5106337;28;19967;-72
2023/01/15 07:53:50;;;;;;;;;;;9.50;99.90;;;;;;5078737;28;19924;-72
2023/01/15 07:56:19;;;;;;;;;;;9.50;99.90;;;;;;5105345;28;19927;-72
2023/01/15 07:58:49;;;;;;;;;;;9.50;99.90;;;;;;5087573;28;19931;-72
2023/01/15 08:01:17;;;;;;;;;;;9.50;99.90;;;;;;5081866;28;19928;-72
2023/01/15 08:03:47;;;;;;;;;;;9.50;99.90;;;;;;5083446;28;19932;-72
2023/01/15 08:06:16;;;;;;;;;;;9.50;99.90;;;;;;5118428;28;19931;-72
2023/01/15 08:08:46;;;;;;;;;;;9.50;99.90;;;;;;5121899;28;19924;-72
2023/01/15 08:16:49;;;;;;;;;;;9.70;99.90;;;;;;5129932;27;19928;-71
2023/01/15 08:19:18;;;;;;;;;;;9.70;99.90;;;;;;5116480;27;19968;-72
2023/01/15 08:21:47;;;;;;;;;;;9.80;99.90;;;;;;5087102;28;19924;-71
2023/01/15 08:24:16;;;;;;;;;;;9.80;99.90;;;;;;5113708;27;19933;-72
2023/01/15 08:26:47;;;;;;;;;;;9.90;99.90;;;;;;5113232;27;19924;-71
2023/01/15 08:29:17;;;;;;;;;;;10.00;99.90;;;;;;5114941;27;19972;-71
2023/01/15 08:31:47;;;;;;;;;;;9.90;99.90;;;;;;5097966;28;20459;-72
2023/01/15 08:34:18;;;;;;;;;;;10.00;99.90;;;;;;5122094;27;19980;-72
2023/01/15 08:36:48;;;;;;;;;;;10.00;99.90;;;;;;5100098;28;20019;-72
2023/01/15 08:39:17;;;;;;;;;;;10.00;99.90;;;;;;5084267;28;19932;-72
2023/01/15 08:41:49;;;;;;;;;;;10.00;99.90;;;;;;5110089;27;19924;-72
2023/01/15 08:44:20;;;;;;;;;;;10.00;99.90;;;;;;5118637;27;20377;-71
2023/01/15 08:46:49;;;;;;;;;;;10.10;99.90;;;;;;5109351;28;19923;-72
2023/01/15 08:49:19;;;;;;;;;;;10.20;99.90;;;;;;5109838;28;19924;-72
2023/01/15 08:52:13;;;;;;;;;;;10.20;99.90;;;;;;5103817;27;20366;-72
2023/01/15 08:54:42;;;;;;;;;;;10.30;99.90;;;;;;5096078;28;20027;-72
2023/01/15 08:57:15;;;;;;;;;;;10.40;99.90;;;;;;5104170;27;19988;-72
2023/01/15 08:59:44;;;;;;;;;;;10.40;99.90;;;;;;5111057;27;19923;-72
2023/01/15 09:02:17;;;;;;;;;;;10.40;99.90;;;;;;5098852;28;20132;-72
2023/01/15 09:04:47;;;;;;;;;;;10.40;99.90;;;;;;5113406;27;19955;-72
2023/01/15 09:07:16;;;;;;;;;;;10.50;99.90;;;;;;5102292;28;20405;-72
2023/01/15 09:09:46;;;;;;;;;;;9.80;99.90;;;;;;5080409;28;20358;-72
2023/01/15 09:12:15;;;;;;;;;;;8.90;99.90;;;;;;5108278;28;19923;-72
2023/01/15 09:14:44;;;;;;;;;;;8.10;99.90;;;;;;5094677;28;20019;-72
2023/01/15 09:17:13;;;;;;;;;;;7.60;99.90;;;;;;5101387;28;19924;-72
2023/01/15 09:19:44;;;;;;;;;;;7.20;99.90;;;;;;5107093;28;19951;-72
2023/01/15 09:22:13;;;;;;;;;;;6.80;99.90;;;;;;5103428;28;19931;-72
2023/01/15 09:24:42;;;;;;;;;;;6.60;99.90;;;;;;5096441;28;20275;-72
2023/01/15 09:27:12;;;;;;;;;;;6.30;99.90;;;;;;5109915;28;20384;-72
2023/01/15 09:29:42;;;;;;;;;;;6.20;99.90;;;;;;5109088;28;19931;-72
2023/01/15 09:32:11;;;;;;;;;;;6.10;99.90;;;;;;5110778;28;19930;-72
2023/01/15 09:34:41;;;;;;;;;;;6.00;99.90;;;;;;5108136;28;19924;-73
2023/01/15 09:37:10;;;;;;;;;;;5.90;99.90;;;;;;5089628;28;19978;-73
2023/01/15 09:40:06;;;;;;;;;;;5.90;99.90;;;;;;5106980;27;20366;-73
2023/01/15 09:43:08;;;;;;;;;;;5.80;99.90;;;;;;5099517;28;20684;-72
2023/01/15 09:45:49;;;;;;;;;;;5.80;99.90;;;;;;5102953;28;20400;-73
2023/01/15 09:48:48;;;;;;;;;;;5.80;99.90;;;;;;5103589;28;19932;-73
2023/01/15 09:51:28;;;;;;;;;;;5.70;99.90;;;;;;5111256;27;20011;-73
2023/01/15 09:53:59;;;;;;;;;;;5.70;99.90;;;;;;5105843;28;19924;-72
2023/01/15 09:56:31;;;;;;;;;;;5.60;99.90;;;;;;5106387;28;19938;-72
2023/01/15 09:59:09;;;;;;;;;;;5.50;99.90;;;;;;5108516;28;19980;-73
2023/01/15 10:01:42;;;;;;;;;;;5.50;99.90;;;;;;5109313;27;19945;-72
2023/01/15 10:04:17;;;;;;;;;;;5.50;99.90;;;;;;5108044;28;19923;-72
2023/01/15 10:06:54;;;;;;;;;;;5.50;99.90;;;;;;5108088;28;19923;-73
2023/01/15 10:09:25;;;;;;;;;;;5.50;99.90;;;;;;5091293;28;19924;-73
2023/01/15 10:15:18;;;;;;;;;;;5.50;99.90;;;;;;5109274;28;19939;-72
2023/01/15 10:17:52;;;;;;;;;;;5.50;99.90;;;;;;5030482;28;20030;-72
2023/01/15 10:20:42;;;;;;;;;;;5.50;99.90;;;;;;5087373;28;19978;-73
2023/01/15 10:23:30;;;;;;;;;;;5.40;99.90;;;;;;5095811;28;19928;-73
2023/01/15 10:26:08;;;;;;;;;;;5.40;99.90;;;;;;5092512;28;19993;-72
2023/01/15 10:28:48;;;;;;;;;;;5.40;99.90;;;;;;5092720;28;19927;-72
2023/01/15 10:31:20;;;;;;;;;;;5.40;99.90;;;;;;5106666;28;19923;-73
2023/01/15 10:33:55;;;;;;;;;;;5.40;99.90;;;;;;5108315;27;19923;-72
2023/01/15 10:36:29;;;;;;;;;;;5.40;99.90;;;;;;5108628;28;20278;-73
2023/01/15 10:39:09;;;;;;;;;;;5.30;99.90;;;;;;5108271;27;20390;-72
2023/01/15 10:41:41;;;;;;;;;;;5.30;99.90;;;;;;5111781;28;19923;-73
2023/01/15 10:44:13;;;;;;;;;;;5.30;99.90;;;;;;5092248;28;19993;-73
2023/01/15 10:46:45;;;;;;;;;;;5.30;99.90;;;;;;5093231;28;20469;-73
2023/01/15 10:49:15;;;;;;;;;;;5.30;99.90;;;;;;5107404;27;20129;-73
2023/01/15 10:51:45;;;;;;;;;;;5.30;99.90;;;;;;5092380;28;19951;-73
2023/01/15 10:54:16;;;;;;;;;;;5.30;99.90;;;;;;5120220;27;19993;-73
2023/01/15 10:56:45;;;;;;;;;;;5.40;99.90;;;;;;5089869;28;19935;-73
2023/01/15 10:59:17;;;;;;;;;;;5.30;99.90;;;;;;5108606;27;19971;-75
2023/01/15 11:01:50;;;;;;;;;;;5.30;99.90;;;;;;5091888;27;19930;-73
2023/01/15 11:04:20;;;;;;;;;;;5.30;99.90;;;;;;5114654;28;19912;-72
2023/01/15 11:06:50;;;;;;;;;;;5.30;99.90;;;;;;5125619;28;20014;-72
2023/01/15 11:09:30;;;;;;;;;;;5.20;99.90;;;;;;5106464;28;21324;-72
2023/01/15 11:20:42;;;;;;;;;;;5.40;99.90;;;;;;5106966;27;20344;-74
2023/01/15 11:23:16;;;;;;;;;;;5.30;99.90;;;;;;5086884;28;20396;-73
2023/01/15 11:25:49;;;;;;;;;;;5.30;99.90;;;;;;5103610;28;19927;-73
2023/01/15 11:28:29;;;;;;;;;;;5.30;99.90;;;;;;5108150;28;19924;-72
2023/01/15 11:30:58;;;;;;;;;;;5.30;99.90;;;;;;5089363;27;20393;-73
2023/01/15 11:33:30;;;;;;;;;;;5.40;99.90;;;;;;5106757;27;20699;-72
2023/01/15 11:36:01;;;;;;;;;;;5.30;99.90;;;;;;5086668;28;20326;-72
2023/01/15 11:38:44;;;;;;;;;;;5.40;99.90;;;;;;5108691;27;19928;-71
2023/01/15 11:52:53;;;;;;;;;;;5.40;99.90;;;;;;5102950;28;20333;-72
2023/01/15 11:55:24;;;;;;;;;;;5.40;99.90;;;;;;5096463;28;19972;-72
2023/01/15 11:57:55;;;;;;;;;;;5.40;99.90;;;;;;5088467;28;19924;-72
2023/01/15 12:03:22;;;;;;;;;;;5.40;99.90;;;;;;5108153;28;19932;-72
2023/01/15 12:06:01;;;;;;;;;;;5.40;99.90;;;;;;5110568;28;20019;-72
2023/01/15 12:08:43;;;;;;;;;;;5.40;99.90;;;;;;5110140;28;20301;-72
2023/01/15 12:11:31;;;;;;;;;;;5.40;99.90;;;;;;5102993;28;19932;-72
2023/01/15 12:14:23;;;;;;;;;;;5.30;99.90;;;;;;5106681;28;19927;-72
2023/01/15 12:17:07;;;;;;;;;;;5.30;99.90;;;;;;5093479;28;19928;-72
2023/01/15 12:19:51;;;;;;;;;;;5.30;99.90;;;;;;5105251;28;20279;-72
2023/01/15 12:22:20;;;;;;;;;;;5.30;99.90;;;;;;5113708;28;19934;-72
2023/01/15 12:25:08;;;;;;;;;;;5.30;99.90;;;;;;5108937;28;19930;-72
2023/01/15 12:27:51;;;;;;;;;;;5.30;99.90;;;;;;5108568;28;19928;-74
2023/01/15 12:30:39;;;;;;;;;;;5.40;99.90;;;;;;5119595;27;19955;-72
2023/01/15 12:33:14;;;;;;;;;;;5.40;99.90;;;;;;5109003;28;19928;-73
2023/01/15 12:36:28;;;;;;;;;;;5.30;99.90;;;;;;5112910;28;20212;-72
2023/01/15 12:39:00;;;;;;;;;;;5.30;99.90;;;;;;5110991;28;20343;-73
2023/01/15 12:47:49;;;;;;;;;;;5.10;99.90;;;;;;5107904;28;20290;-72
2023/01/15 12:50:23;;;;;;;;;;;4.90;99.90;;;;;;5101773;28;19945;-73
2023/01/15 12:53:13;;;;;;;;;;;4.80;99.90;;;;;;5102867;28;19938;-72
2023/01/15 12:56:04;;;;;;;;;;;4.80;99.90;;;;;;5109097;28;19927;-72
2023/01/15 12:58:56;;;;;;;;;;;4.70;99.90;;;;;;5094627;28;19924;-72
2023/01/15 13:02:03;;;;;;;;;;;4.60;99.90;;;;;;5088093;28;20366;-72
2023/01/15 13:04:39;;;;;;;;;;;4.60;99.90;;;;;;5039234;28;19928;-72
2023/01/15 13:07:29;;;;;;;;;;;4.50;99.90;;;;;;5101253;28;20283;-72
2023/01/15 13:10:01;;;;;;;;;;;4.50;99.90;;;;;;5103508;28;19931;-71
2023/01/15 13:12:32;;;;;;;;;;;4.50;99.90;;;;;;5084314;28;19924;-72
2023/01/15 13:15:02;;;;;;;;;;;4.50;99.90;;;;;;5096371;28;19923;-72
2023/01/15 13:17:31;;;;;;;;;;;4.40;99.90;;;;;;5089095;28;20015;-73
2023/01/15 13:20:12;;;;;;;;;;;4.40;99.90;;;;;;5089607;28;20367;-71
2023/01/15 13:22:49;;;;;;;;;;;4.40;99.90;;;;;;5097585;28;20020;-72
2023/01/15 13:25:34;;;;;;;;;;;4.40;99.90;;;;;;5090941;28;19931;-73
2023/01/15 13:28:03;;;;;;;;;;;4.30;99.90;;;;;;5082244;28;19956;-72
2023/01/15 13:30:51;;;;;;;;;;;4.30;99.90;;;;;;5111712;28;20032;-71
2023/01/15 13:33:28;;;;;;;;;;;4.30;99.90;;;;;;5079045;28;19924;-72
2023/01/15 13:36:03;;;;;;;;;;;4.30;99.90;;;;;;5103265;28;20384;-72
2023/01/15 13:38:39;;;;;;;;;;;4.30;99.90;;;;;;5075079;28;19934;-72
2023/01/15 13:44:15;;;;;;;;;;;4.20;99.90;;;;;;5103969;28;20661;-72
2023/01/15 13:47:08;;;;;;;;;;;4.30;99.90;;;;;;5097417;28;20018;-72
2023/01/15 13:49:51;;;;;;;;;;;4.20;99.90;;;;;;5083233;28;19966;-72
2023/01/15 13:52:30;;;;;;;;;;;4.20;99.90;;;;;;5105762;28;19931;-72
2023/01/15 13:55:01;;;;;;;;;;;4.20;99.90;;;;;;5103977;28;19932;-72
2023/01/15 13:57:34;;;;;;;;;;;4.20;99.90;;;;;;5087679;28;19924;-72
2023/01/15 14:00:37;;;;;;;;;;;4.10;99.90;;;;;;5087335;28;19928;-72
2023/01/15 14:03:41;;;;;;;;;;;4.10;99.90;;;;;;5098349;28;20927;-72
2023/01/15 14:06:11;;;;;;;;;;;4.10;99.90;;;;;;5025244;28;19925;-72
2023/01/15 14:08:42;;;;;;;;;;;4.10;99.90;;;;;;5092426;28;20286;-72
2023/01/15 14:11:29;;;;;;;;;;;4.00;99.90;;;;;;5098884;28;20542;-72
2023/01/15 14:14:23;;;;;;;;;;;4.00;99.90;;;;;;5104169;28;19924;-73
2023/01/15 14:17:12;;;;;;;;;;;4.00;99.90;;;;;;5101230;28;19928;-72
2023/01/15 14:19:59;;;;;;;;;;;3.90;99.90;;;;;;5104380;28;20302;-72
2023/01/15 14:22:48;;;;;;;;;;;3.90;99.90;;;;;;5088596;28;19924;-72
2023/01/15 14:25:42;;;;;;;;;;;3.90;99.90;;;;;;5109073;28;19966;-73
2023/01/15 14:28:12;;;;;;;;;;;3.90;99.90;;;;;;5061275;28;20568;-72
2023/01/15 14:30:56;;;;;;;;;;;3.90;99.90;;;;;;5104215;28;20540;-73
2023/01/15 14:33:33;;;;;;;;;;;3.90;99.90;;;;;;5091411;28;20290;-73
2023/01/15 14:36:17;;;;;;;;;;;3.90;99.90;;;;;;5089013;28;19955;-72
2023/01/15 14:38:51;;;;;;;;;;;3.90;99.90;;;;;;5090688;28;19932;-72
2023/01/15 14:41:29;;;;;;;;;;;3.90;99.90;;;;;;5092329;28;19927;-72
2023/01/15 14:44:00;;;;;;;;;;;3.90;99.90;;;;;;5106055;28;20497;-72
2023/01/15 14:46:45;;;;;;;;;;;3.90;99.90;;;;;;5108522;28;20393;-73
2023/01/15 14:49:28;;;;;;;;;;;3.90;99.90;;;;;;5082715;28;20367;-72
2023/01/15 14:51:57;;;;;;;;;;;3.90;99.90;;;;;;5096706;28;19931;-72
2023/01/15 14:54:28;;;;;;;;;;;3.80;99.90;;;;;;5101578;28;20367;-73
2023/01/15 14:57:05;;;;;;;;;;;3.80;99.90;;;;;;5102002;28;19924;-72
2023/01/15 14:59:53;;;;;;;;;;;3.80;99.90;;;;;;5104965;27;19935;-72
2023/01/15 15:02:30;;;;;;;;;;;3.70;99.90;;;;;;5107879;28;20394;-72
2023/01/15 15:04:59;;;;;;;;;;;3.60;99.90;;;;;;5103026;28;20402;-72
2023/01/15 15:07:35;;;;;;;;;;;3.60;99.90;;;;;;5086306;28;19966;-72
2023/01/15 15:10:21;;;;;;;;;;;3.50;99.90;;;;;;5108565;28;19924;-72
2023/01/15 15:13:06;;;;;;;;;;;3.40;99.90;;;;;;5087163;28;19928;-72
2023/01/15 15:16:05;;;;;;;;;;;3.30;99.90;;;;;;5101777;28;19934;-73
2023/01/15 15:18:53;;;;;;;;;;;3.30;99.90;;;;;;5068123;28;20181;-73
2023/01/15 15:21:31;;;;;;;;;;;3.20;99.90;;;;;;5107564;27;19928;-72
2023/01/15 15:24:17;;;;;;;;;;;3.20;99.90;;;;;;5091904;28;20026;-72
2023/01/15 15:26:46;;;;;;;;;;;3.10;99.90;;;;;;5105869;28;20449;-72
2023/01/15 15:29:16;;;;;;;;;;;3.00;99.90;;;;;;5099957;28;19924;-73
2023/01/15 15:32:29;;;;;;;;;;;2.90;99.90;;;;;;5103068;27;19931;-72
2023/01/15 15:35:28;;;;;;;;;;;2.90;99.90;;;;;;5064271;28;19932;-72
2023/01/15 15:37:59;;;;;;;;;;;2.90;99.90;;;;;;5046210;28;20602;-72
2023/01/15 15:40:33;;;;;;;;;;;2.90;99.90;;;;;;5063855;28;20587;-72
2023/01/15 15:48:56;;;;;;;;;;;2.90;99.90;;;;;;5041959;28;19968;-73
2023/01/15 15:51:40;;;;;;;;;;;2.90;99.90;;;;;;5053664;28;20047;-73
2023/01/15 15:54:09;;;;;;;;;;;3.00;99.90;;;;;;5050187;28;19925;-73
2023/01/15 15:56:44;;;;;;;;;;;3.00;99.90;;;;;;5057222;28;20546;-73
2023/01/15 15:59:25;;;;;;;;;;;3.10;99.90;;;;;;5062067;28;20438;-73
2023/01/15 16:01:56;;;;;;;;;;;3.10;99.90;;;;;;5072579;28;19966;-73
2023/01/15 16:04:27;;;;;;;;;;;3.10;99.90;;;;;;5091425;28;19971;-73
2023/01/15 16:06:59;;;;;;;;;;;3.20;99.90;;;;;;5082466;28;20382;-72
2023/01/15 16:09:29;;;;;;;;;;;3.20;99.90;;;;;;5085664;28;20285;-72
2023/01/15 16:12:05;;;;;;;;;;;3.20;99.90;;;;;;5068443;28;19931;-73
2023/01/15 16:14:36;;;;;;;;;;;3.30;99.90;;;;;;5100263;28;20606;-72
2023/01/15 16:17:04;;;;;;;;;;;3.30;99.90;;;;;;5086978;28;20436;-72
2023/01/15 16:19:48;;;;;;;;;;;3.30;99.90;;;;;;5081295;28;20485;-72